createdAt,value
2018-05-05T00:00:11.772Z,11.82
2018-05-05T00:02:04.735Z,11.82
2018-05-05T00:03:04.629Z,11.82
2018-05-05T00:04:58.079Z,11.85
2018-05-05T00:05:57.489Z,11.82
2018-05-05T00:07:50.874Z,11.82
2018-05-05T00:08:50.871Z,11.82
2018-05-05T00:10:43.742Z,11.74
2018-05-05T00:11:43.714Z,11.61
2018-05-05T00:13:37.145Z,11.59
2018-05-05T00:14:37.097Z,11.61
2018-05-05T00:16:29.960Z,11.59
2018-05-05T00:17:29.939Z,11.61
2018-05-05T00:19:22.898Z,11.54
2018-05-05T00:20:22.802Z,11.56
2018-05-05T00:22:15.771Z,11.56
2018-05-05T00:23:15.678Z,11.56
2018-05-05T00:25:09.141Z,11.51
2018-05-05T00:26:08.540Z,11.56
2018-05-05T00:28:02.987Z,11.56
2018-05-05T00:29:01.394Z,11.49
2018-05-05T00:30:54.301Z,11.52
2018-05-05T00:31:54.266Z,11.40
2018-05-05T00:33:47.668Z,11.48
2018-05-05T00:34:47.628Z,11.49
2018-05-05T00:36:40.515Z,11.45
2018-05-05T00:37:40.494Z,11.43
2018-05-05T00:39:33.388Z,11.37
2018-05-05T00:40:33.360Z,11.36
2018-05-05T00:42:26.263Z,11.31
2018-05-05T00:43:26.223Z,11.33
2018-05-05T00:45:19.160Z,11.19
2018-05-05T00:46:19.089Z,11.20
2018-05-05T00:48:12.021Z,11.18
2018-05-05T00:49:11.958Z,11.13
2018-05-05T00:51:04.853Z,11.12
2018-05-05T00:52:04.861Z,11.19
2018-05-05T00:53:57.702Z,11.12
2018-05-05T00:54:57.676Z,11.08
2018-05-05T00:56:50.569Z,11.05
2018-05-05T00:57:50.538Z,10.97
2018-05-05T00:59:43.499Z,11.05
2018-05-05T01:00:43.404Z,11.05
2018-05-05T01:02:36.291Z,11.00
2018-05-05T01:03:36.271Z,11.03
2018-05-05T01:05:29.177Z,10.97
2018-05-05T01:06:29.134Z,11.03
2018-05-05T01:08:22.022Z,11.12
2018-05-05T01:09:22.012Z,11.11
2018-05-05T01:11:14.885Z,11.13
2018-05-05T01:12:14.861Z,11.19
2018-05-05T01:14:07.764Z,11.11
2018-05-05T01:15:07.727Z,11.20
2018-05-05T01:17:01.158Z,11.18
2018-05-05T01:18:01.079Z,11.20
2018-05-05T01:19:54.533Z,11.12
2018-05-05T01:20:54.440Z,11.11
2018-05-05T01:22:47.333Z,11.18
2018-05-05T01:23:47.310Z,11.08
2018-05-05T01:25:40.702Z,10.98
2018-05-05T01:26:40.665Z,11.08
2018-05-05T01:28:35.933Z,11.00
2018-05-05T01:29:34.020Z,11.04
2018-05-05T01:31:26.909Z,11.09
2018-05-05T01:32:26.895Z,11.00
2018-05-05T01:34:19.797Z,10.86
2018-05-05T01:35:19.748Z,10.95
2018-05-05T01:37:13.195Z,10.80
2018-05-05T01:38:13.118Z,10.78
2018-05-05T01:40:05.987Z,10.75
2018-05-05T01:41:05.964Z,10.76
2018-05-05T01:42:59.348Z,10.76
2018-05-05T01:43:59.325Z,10.80
2018-05-05T01:45:52.216Z,10.79
2018-05-05T01:46:52.203Z,10.79
2018-05-05T01:48:45.708Z,10.82
2018-05-05T01:49:45.540Z,10.78
2018-05-05T01:51:38.920Z,10.78
2018-05-05T01:52:38.911Z,10.76
2018-05-05T01:54:31.830Z,10.70
2018-05-05T01:55:31.761Z,10.72
2018-05-05T01:57:24.728Z,10.73
2018-05-05T01:58:24.626Z,10.72
2018-05-05T02:00:17.559Z,10.68
2018-05-05T02:01:17.486Z,10.67
2018-05-05T02:03:10.877Z,10.76
2018-05-05T02:04:10.850Z,10.75
2018-05-05T02:06:03.835Z,10.62
2018-05-05T02:07:03.700Z,10.75
2018-05-05T02:08:56.596Z,10.62
2018-05-05T02:09:56.596Z,10.60
2018-05-05T02:11:49.546Z,10.72
2018-05-05T02:12:49.436Z,10.67
2018-05-05T02:14:42.319Z,10.78
2018-05-05T02:15:42.315Z,10.68
2018-05-05T02:17:35.204Z,10.65
2018-05-05T02:18:35.173Z,10.79
2018-05-05T02:20:28.058Z,10.65
2018-05-05T02:21:28.030Z,10.72
2018-05-05T02:23:21.511Z,10.64
2018-05-05T02:24:20.876Z,10.52
2018-05-05T02:26:13.777Z,10.61
2018-05-05T02:27:13.752Z,10.55
2018-05-05T02:29:06.657Z,10.42
2018-05-05T02:30:06.627Z,10.43
2018-05-05T02:32:00.011Z,10.36
2018-05-05T02:32:59.972Z,10.31
2018-05-05T02:34:52.873Z,10.31
2018-05-05T02:35:52.852Z,10.34
2018-05-05T02:37:45.725Z,10.27
2018-05-05T02:38:45.701Z,10.27
2018-05-05T02:40:38.585Z,10.26
2018-05-05T02:41:38.560Z,10.18
2018-05-05T02:43:32.004Z,10.10
2018-05-05T02:44:31.933Z,10.10
2018-05-05T02:46:24.816Z,10.17
2018-05-05T02:47:24.792Z,10.17
2018-05-05T02:49:17.704Z,10.09
2018-05-05T02:50:17.661Z,10.09
2018-05-05T02:52:10.596Z,10.06
2018-05-05T02:53:10.526Z,9.99
2018-05-05T02:55:03.412Z,10.01
2018-05-05T02:56:03.389Z,10.02
2018-05-05T02:57:57.353Z,9.98
2018-05-05T02:58:56.733Z,9.98
2018-05-05T03:00:50.105Z,9.96
2018-05-05T03:01:50.085Z,10.02
2018-05-05T03:03:42.971Z,9.83
2018-05-05T03:04:42.955Z,9.88
2018-05-05T03:06:35.905Z,9.81
2018-05-05T03:07:35.807Z,9.70
2018-05-05T03:09:28.723Z,9.75
2018-05-05T03:10:28.700Z,9.69
2018-05-05T03:12:21.582Z,9.72
2018-05-05T03:13:21.563Z,9.67
2018-05-05T03:15:14.955Z,9.77
2018-05-05T03:16:14.906Z,9.69
2018-05-05T03:18:07.875Z,9.69
2018-05-05T03:19:07.793Z,9.66
2018-05-05T03:21:01.168Z,9.72
2018-05-05T03:22:01.141Z,9.65
2018-05-05T03:23:54.082Z,9.65
2018-05-05T03:24:53.996Z,9.60
2018-05-05T03:26:47.087Z,9.57
2018-05-05T03:27:46.878Z,9.59
2018-05-05T03:29:39.743Z,9.54
2018-05-05T03:30:39.734Z,9.51
2018-05-05T03:32:32.758Z,9.50
2018-05-05T03:33:32.586Z,9.52
2018-05-05T03:35:25.957Z,9.48
2018-05-05T03:36:25.933Z,9.50
2018-05-05T03:38:19.388Z,9.48
2018-05-05T03:39:18.790Z,9.45
2018-05-05T03:41:11.758Z,9.48
2018-05-05T03:42:11.696Z,9.50
2018-05-05T03:44:04.565Z,9.42
2018-05-05T03:45:04.532Z,9.48
2018-05-05T03:46:57.918Z,9.45
2018-05-05T03:47:57.883Z,9.48
2018-05-05T03:49:50.832Z,9.45
2018-05-05T03:50:50.751Z,9.51
2018-05-05T03:52:43.666Z,9.55
2018-05-05T03:53:43.612Z,9.45
2018-05-05T03:55:36.504Z,9.36
2018-05-05T03:56:36.464Z,9.45
2018-05-05T03:58:29.846Z,9.55
2018-05-05T03:59:29.814Z,9.50
2018-05-05T04:01:22.705Z,9.50
2018-05-05T04:02:22.681Z,9.45
2018-05-05T04:04:15.631Z,9.48
2018-05-05T04:05:15.538Z,9.41
2018-05-05T04:07:08.437Z,9.34
2018-05-05T04:08:08.398Z,9.41
2018-05-05T04:10:01.321Z,9.41
2018-05-05T04:11:01.261Z,9.47
2018-05-05T04:12:54.640Z,9.52
2018-05-05T04:13:54.610Z,9.47
2018-05-05T04:15:47.541Z,9.48
2018-05-05T04:16:47.472Z,9.41
2018-05-05T04:18:40.884Z,9.37
2018-05-05T04:19:40.851Z,9.40
2018-05-05T04:21:33.753Z,9.32
2018-05-05T04:22:33.692Z,9.30
2018-05-05T04:24:26.617Z,9.26
2018-05-05T04:25:26.550Z,9.29
2018-05-05T04:27:19.449Z,9.23
2018-05-05T04:28:19.429Z,9.11
2018-05-05T04:30:12.313Z,9.27
2018-05-05T04:31:12.293Z,9.30
2018-05-05T04:33:05.172Z,9.37
2018-05-05T04:34:05.137Z,9.33
2018-05-05T04:35:58.609Z,9.41
2018-05-05T04:36:58.484Z,9.37
2018-05-05T04:38:51.389Z,9.51
2018-05-05T04:39:51.362Z,9.47
2018-05-05T04:41:44.357Z,9.42
2018-05-05T04:42:44.224Z,9.50
2018-05-05T04:44:37.111Z,9.51
2018-05-05T04:45:37.091Z,9.55
2018-05-05T04:47:29.981Z,9.65
2018-05-05T04:48:29.939Z,9.66
2018-05-05T04:50:23.391Z,9.78
2018-05-05T04:51:22.845Z,9.66
2018-05-05T04:53:15.680Z,9.80
2018-05-05T04:54:15.664Z,9.80
2018-05-05T04:56:08.577Z,9.99
2018-05-05T04:57:08.598Z,10.08
2018-05-05T04:59:01.443Z,10.14
2018-05-05T05:00:01.376Z,10.17
2018-05-05T05:01:54.274Z,10.23
2018-05-05T05:02:54.258Z,10.35
2018-05-05T05:04:47.140Z,10.42
2018-05-05T05:05:47.098Z,10.58
2018-05-05T05:07:40.560Z,10.52
2018-05-05T05:08:39.960Z,10.61
2018-05-05T05:10:33.063Z,10.68
2018-05-05T05:11:32.925Z,10.79
2018-05-05T05:13:25.815Z,11.15
2018-05-05T05:14:25.809Z,11.31
2018-05-05T05:16:18.685Z,11.97
2018-05-05T05:17:18.658Z,12.26
2018-05-05T05:19:11.552Z,12.98
2018-05-05T05:20:11.521Z,13.32
2018-05-05T05:22:04.911Z,13.80
2018-05-05T05:23:04.880Z,13.98
2018-05-05T05:24:58.252Z,14.31
2018-05-05T05:25:58.232Z,14.52
2018-05-05T05:27:51.133Z,14.71
2018-05-05T05:28:51.149Z,14.95
2018-05-05T05:30:43.987Z,15.17
2018-05-05T05:31:43.973Z,15.27
2018-05-05T05:33:37.446Z,15.26
2018-05-05T05:34:37.341Z,15.10
2018-05-05T05:36:30.224Z,15.45
2018-05-05T05:37:30.219Z,15.70
2018-05-05T05:39:23.202Z,16.46
2018-05-05T05:40:23.092Z,16.82
2018-05-05T05:42:16.287Z,17.10
2018-05-05T05:43:15.959Z,17.28
2018-05-05T05:45:09.712Z,17.49
2018-05-05T05:46:09.340Z,17.63
2018-05-05T05:48:03.082Z,17.66
2018-05-05T05:49:03.014Z,17.50
2018-05-05T05:50:55.926Z,17.30
2018-05-05T05:51:55.584Z,17.38
2018-05-05T05:53:48.809Z,17.49
2018-05-05T05:54:48.791Z,17.69
2018-05-05T05:56:42.182Z,17.90
2018-05-05T05:57:42.141Z,17.90
2018-05-05T05:59:36.563Z,17.91
2018-05-05T06:00:36.577Z,17.96
2018-05-05T06:02:29.464Z,18.12
2018-05-05T06:03:29.190Z,18.12
2018-05-05T06:05:23.003Z,18.28
2018-05-05T06:06:22.855Z,18.34
2018-05-05T06:08:15.815Z,18.41
2018-05-05T06:09:17.090Z,18.54
2018-05-05T06:11:09.286Z,18.64
2018-05-05T06:12:09.119Z,18.85
2018-05-05T06:14:04.069Z,19.12
2018-05-05T06:15:02.204Z,19.16
2018-05-05T06:16:55.969Z,19.37
2018-05-05T06:17:55.904Z,19.44
2018-05-05T06:19:49.344Z,19.53
2018-05-05T06:20:48.983Z,19.68
2018-05-05T06:23:06.427Z,19.84
2018-05-05T06:24:06.405Z,19.81
2018-05-05T06:26:00.114Z,19.97
2018-05-05T06:26:59.775Z,19.94
2018-05-05T06:28:52.689Z,19.99
2018-05-05T06:29:52.697Z,20.09
2018-05-05T06:31:46.449Z,20.05
2018-05-05T06:32:46.067Z,19.86
2018-05-05T06:34:40.369Z,19.86
2018-05-05T06:35:39.270Z,19.70
2018-05-05T06:37:32.727Z,20.04
2018-05-05T06:38:32.706Z,19.99
2018-05-05T06:40:26.100Z,19.97
2018-05-05T06:41:26.320Z,20.08
2018-05-05T06:43:23.616Z,20.00
2018-05-05T06:44:22.114Z,20.15
2018-05-05T06:46:15.507Z,20.52
2018-05-05T06:47:15.476Z,20.58
2018-05-05T06:49:08.866Z,20.67
2018-05-05T06:50:08.859Z,20.58
2018-05-05T06:52:02.334Z,20.52
2018-05-05T06:53:02.230Z,20.50
2018-05-05T06:54:55.669Z,20.56
2018-05-05T06:55:55.695Z,20.58
2018-05-05T06:57:48.618Z,20.58
2018-05-05T06:58:48.537Z,20.61
2018-05-05T07:00:41.505Z,20.68
2018-05-05T07:01:41.657Z,20.73
2018-05-05T07:03:34.931Z,20.71
2018-05-05T07:04:34.461Z,20.70
2018-05-05T07:06:28.291Z,20.61
2018-05-05T07:07:28.084Z,20.56
2018-05-05T07:09:23.225Z,20.64
2018-05-05T07:10:22.781Z,20.68
2018-05-05T07:12:15.542Z,20.61
2018-05-05T07:13:16.029Z,20.55
2018-05-05T07:15:09.254Z,20.60
2018-05-05T07:16:09.443Z,20.52
2018-05-05T07:18:08.246Z,20.55
2018-05-05T07:19:03.215Z,20.64
2018-05-05T07:20:56.224Z,20.90
2018-05-05T07:21:56.036Z,20.98
2018-05-05T07:23:49.453Z,20.79
2018-05-05T07:24:49.574Z,20.63
2018-05-05T07:26:43.706Z,20.65
2018-05-05T07:27:43.579Z,20.68
2018-05-05T07:29:37.833Z,20.85
2018-05-05T07:30:37.649Z,20.71
2018-05-05T07:32:31.150Z,20.67
2018-05-05T07:33:33.138Z,20.63
2018-05-05T07:35:25.757Z,20.52
2018-05-05T07:36:26.157Z,20.50
2018-05-05T07:38:18.761Z,20.39
2018-05-05T07:39:18.415Z,20.49
2018-05-05T07:41:11.491Z,20.58
2018-05-05T07:42:11.428Z,20.61
2018-05-05T07:44:04.792Z,20.89
2018-05-05T07:45:04.864Z,21.07
2018-05-05T07:46:58.341Z,21.03
2018-05-05T07:47:58.257Z,21.11
2018-05-05T07:49:51.638Z,21.08
2018-05-05T07:50:51.215Z,21.16
2018-05-05T07:52:44.194Z,21.14
2018-05-05T07:53:44.093Z,21.20
2018-05-05T07:55:37.473Z,20.92
2018-05-05T07:56:37.462Z,20.79
2018-05-05T07:58:30.969Z,20.26
2018-05-05T07:59:30.934Z,20.50
2018-05-05T08:01:23.949Z,20.52
2018-05-05T08:02:23.844Z,20.75
2018-05-05T08:04:16.915Z,20.90
2018-05-05T08:05:16.733Z,21.01
2018-05-05T08:07:10.036Z,21.35
2018-05-05T08:08:09.949Z,21.43
2018-05-05T08:10:03.432Z,21.44
2018-05-05T08:11:04.052Z,21.51
2018-05-05T08:12:57.051Z,21.71
2018-05-05T08:15:30.253Z,21.90
2018-05-05T08:17:26.472Z,21.37
2018-05-05T08:19:41.963Z,21.35
2018-05-05T08:21:48.457Z,21.44
2018-05-05T08:22:48.470Z,21.59
2018-05-05T08:24:41.607Z,21.53
2018-05-05T08:25:41.308Z,21.53
2018-05-05T08:27:34.280Z,21.48
2018-05-05T08:28:34.221Z,21.44
2018-05-05T08:30:27.093Z,20.88
2018-05-05T08:31:27.074Z,20.88
2018-05-05T08:33:20.002Z,21.04
2018-05-05T08:34:19.960Z,21.07
2018-05-05T08:36:12.871Z,21.28
2018-05-05T08:37:12.860Z,21.40
2018-05-05T08:39:05.765Z,21.43
2018-05-05T08:40:05.740Z,21.47
2018-05-05T08:41:59.169Z,21.45
2018-05-05T08:42:59.135Z,21.44
2018-05-05T08:44:52.525Z,21.43
2018-05-05T08:45:52.515Z,21.38
2018-05-05T08:47:45.897Z,21.41
2018-05-05T08:48:45.874Z,21.29
2018-05-05T08:50:38.799Z,21.25
2018-05-05T08:51:38.776Z,21.11
2018-05-05T08:53:32.230Z,21.08
2018-05-05T08:54:31.664Z,21.18
2018-05-05T08:56:26.077Z,21.05
2018-05-05T08:57:25.044Z,20.95
2018-05-05T08:59:18.470Z,21.01
2018-05-05T09:00:18.440Z,21.10
2018-05-05T09:02:11.844Z,21.10
2018-05-05T09:03:11.957Z,21.16
2018-05-05T09:05:04.778Z,21.04
2018-05-05T09:06:04.699Z,21.01
2018-05-05T09:07:57.778Z,21.08
2018-05-05T09:08:57.586Z,20.98
2018-05-05T09:10:51.067Z,21.01
2018-05-05T09:11:51.001Z,21.11
2018-05-05T09:13:45.375Z,21.08
2018-05-05T09:14:45.337Z,21.07
2018-05-05T09:16:38.745Z,21.01
2018-05-05T09:17:38.709Z,21.03
2018-05-05T09:19:31.660Z,21.04
2018-05-05T09:20:31.588Z,21.01
2018-05-05T09:22:24.501Z,21.05
2018-05-05T09:23:24.470Z,21.11
2018-05-05T09:25:17.880Z,21.19
2018-05-05T09:26:17.848Z,21.18
2018-05-05T09:28:11.334Z,21.28
2018-05-05T09:29:11.815Z,21.22
2018-05-05T09:31:04.222Z,21.10
2018-05-05T09:32:04.176Z,21.04
2018-05-05T09:33:57.461Z,21.00
2018-05-05T09:34:57.091Z,20.83
2018-05-05T09:36:50.738Z,20.83
2018-05-05T09:37:53.576Z,20.82
2018-05-05T09:39:44.579Z,20.82
2018-05-05T09:40:48.064Z,20.83
2018-05-05T09:42:38.807Z,20.90
2018-05-05T09:43:37.704Z,20.88
2018-05-05T09:45:32.084Z,21.00
2018-05-05T09:46:32.976Z,21.07
2018-05-05T09:48:25.472Z,21.00
2018-05-05T09:49:25.512Z,20.86
2018-05-05T09:51:19.282Z,20.85
2018-05-05T09:52:18.325Z,20.97
2018-05-05T09:54:12.278Z,21.10
2018-05-05T09:55:11.730Z,21.16
2018-05-05T09:57:06.803Z,21.28
2018-05-05T09:58:05.494Z,21.22
2018-05-05T09:59:58.546Z,21.26
2018-05-05T10:00:58.481Z,21.20
2018-05-05T10:02:51.874Z,21.13
2018-05-05T10:03:52.249Z,21.10
2018-05-05T10:05:46.154Z,21.16
2018-05-05T10:06:46.552Z,21.14
2018-05-05T10:08:38.384Z,21.19
2018-05-05T10:09:37.987Z,21.13
2018-05-05T10:11:31.280Z,21.25
2018-05-05T10:12:31.273Z,21.40
2018-05-05T10:14:24.761Z,21.45
2018-05-05T10:15:24.266Z,21.47
2018-05-05T10:17:17.553Z,21.51
2018-05-05T10:18:17.228Z,21.38
2018-05-05T10:20:11.055Z,21.45
2018-05-05T10:21:11.019Z,21.45
2018-05-05T10:23:05.261Z,21.60
2018-05-05T10:24:05.244Z,21.58
2018-05-05T10:26:01.004Z,21.67
2018-05-05T10:26:59.268Z,21.58
2018-05-05T10:28:53.633Z,21.53
2018-05-05T10:29:51.771Z,21.48
2018-05-05T10:31:46.316Z,21.59
2018-05-05T10:33:59.169Z,21.53
2018-05-05T10:34:58.771Z,21.69
2018-05-05T10:36:53.990Z,21.67
2018-05-05T10:37:52.073Z,21.81
2018-05-05T10:39:51.014Z,21.71
2018-05-05T10:40:47.960Z,21.53
2018-05-05T10:42:42.769Z,21.60
2018-05-05T10:43:42.661Z,21.74
2018-05-05T10:45:36.652Z,21.69
2018-05-05T10:46:36.639Z,21.80
2018-05-05T10:48:30.040Z,21.85
2018-05-05T10:49:30.025Z,21.90
2018-05-05T10:51:23.545Z,21.91
2018-05-05T10:52:23.338Z,21.88
2018-05-05T10:54:17.740Z,21.96
2018-05-05T10:55:17.431Z,22.09
2018-05-05T10:57:11.180Z,22.00
2018-05-05T10:58:11.061Z,21.88
2018-05-05T11:00:04.562Z,21.91
2018-05-05T11:01:04.478Z,21.84
2018-05-05T11:02:59.298Z,21.85
2018-05-05T11:03:58.867Z,21.90
2018-05-05T11:05:52.286Z,21.91
2018-05-05T11:06:52.311Z,21.97
2018-05-05T11:08:46.254Z,22.06
2018-05-05T11:09:45.696Z,22.07
2018-05-05T11:11:39.404Z,22.04
2018-05-05T11:12:39.126Z,22.04
2018-05-05T11:14:35.068Z,22.03
2018-05-05T11:15:34.540Z,22.11
2018-05-05T11:17:26.770Z,22.11
2018-05-05T11:18:26.744Z,22.07
2018-05-05T11:20:19.885Z,22.06
2018-05-05T11:21:19.472Z,22.04
2018-05-05T11:23:13.215Z,22.19
2018-05-05T11:24:13.287Z,22.21
2018-05-05T11:26:07.581Z,22.30
2018-05-05T11:27:07.512Z,22.28
2018-05-05T11:29:03.737Z,22.23
2018-05-05T11:30:03.505Z,22.30
2018-05-05T11:32:11.009Z,22.31
